sensor_id;sensor_type;location;lat;lon;timestamp;P1;durP1;ratioP1;P2;durP2;ratioP2
56122;SDS011;42426;46.104;19.656;2024-03-02T00:00:14;34.95;;;19.90;;
56122;SDS011;42426;46.104;19.656;2024-03-02T00:02:42;35.40;;;21.80;;
56122;SDS011;42426;46.104;19.656;2024-03-02T00:05:12;29.15;;;18.90;;
56122;SDS011;42426;46.104;19.656;2024-03-02T00:07:44;35.95;;;21.27;;
56122;SDS011;42426;46.104;19.656;2024-03-02T00:10:13;37.15;;;20.63;;
56122;SDS011;42426;46.104;19.656;2024-03-02T00:12:47;35.38;;;21.50;;
56122;SDS011;42426;46.104;19.656;2024-03-02T00:17:59;39.08;;;21.77;;
56122;SDS011;42426;46.104;19.656;2024-03-02T00:20:25;32.63;;;21.20;;
56122;SDS011;42426;46.104;19.656;2024-03-02T00:22:59;31.80;;;20.13;;
56122;SDS011;42426;46.104;19.656;2024-03-02T00:25:49;33.28;;;20.73;;
56122;SDS011;42426;46.104;19.656;2024-03-02T00:33:44;31.10;;;19.63;;
56122;SDS011;42426;46.104;19.656;2024-03-02T00:38:47;33.70;;;20.45;;
56122;SDS011;42426;46.104;19.656;2024-03-02T00:41:24;29.77;;;19.13;;
56122;SDS011;42426;46.104;19.656;2024-03-02T00:43:57;30.67;;;19.33;;
56122;SDS011;42426;46.104;19.656;2024-03-02T00:46:23;34.08;;;20.45;;
56122;SDS011;42426;46.104;19.656;2024-03-02T00:48:54;33.63;;;20.55;;
56122;SDS011;42426;46.104;19.656;2024-03-02T00:51:21;31.88;;;19.85;;
56122;SDS011;42426;46.104;19.656;2024-03-02T00:53:48;37.90;;;20.40;;
56122;SDS011;42426;46.104;19.656;2024-03-02T00:56:14;36.67;;;20.85;;
56122;SDS011;42426;46.104;19.656;2024-03-02T00:58:40;32.15;;;21.10;;
56122;SDS011;42426;46.104;19.656;2024-03-02T01:01:06;34.35;;;19.73;;
56122;SDS011;42426;46.104;19.656;2024-03-02T01:03:32;31.15;;;18.15;;
56122;SDS011;42426;46.104;19.656;2024-03-02T01:05:59;32.95;;;20.10;;
56122;SDS011;42426;46.104;19.656;2024-03-02T01:08:24;30.95;;;19.50;;
56122;SDS011;42426;46.104;19.656;2024-03-02T01:10:51;32.83;;;18.90;;
56122;SDS011;42426;46.104;19.656;2024-03-02T01:13:17;38.60;;;21.33;;
56122;SDS011;42426;46.104;19.656;2024-03-02T01:15:42;28.45;;;18.10;;
56122;SDS011;42426;46.104;19.656;2024-03-02T01:18:09;34.97;;;20.48;;
56122;SDS011;42426;46.104;19.656;2024-03-02T01:20:34;32.13;;;19.92;;
56122;SDS011;42426;46.104;19.656;2024-03-02T01:23:00;31.13;;;19.05;;
56122;SDS011;42426;46.104;19.656;2024-03-02T01:25:26;35.53;;;21.38;;
56122;SDS011;42426;46.104;19.656;2024-03-02T01:27:52;34.85;;;19.95;;
56122;SDS011;42426;46.104;19.656;2024-03-02T01:30:17;36.28;;;19.63;;
56122;SDS011;42426;46.104;19.656;2024-03-02T01:32:43;40.70;;;20.55;;
56122;SDS011;42426;46.104;19.656;2024-03-02T01:35:09;41.20;;;21.30;;
56122;SDS011;42426;46.104;19.656;2024-03-02T01:37:35;30.13;;;19.42;;
56122;SDS011;42426;46.104;19.656;2024-03-02T01:40:01;31.80;;;19.13;;
56122;SDS011;42426;46.104;19.656;2024-03-02T01:42:27;34.28;;;19.48;;
56122;SDS011;42426;46.104;19.656;2024-03-02T01:44:54;30.55;;;19.13;;
56122;SDS011;42426;46.104;19.656;2024-03-02T01:47:20;30.85;;;18.45;;
56122;SDS011;42426;46.104;19.656;2024-03-02T01:49:45;27.80;;;17.45;;
56122;SDS011;42426;46.104;19.656;2024-03-02T01:52:11;31.10;;;19.75;;
56122;SDS011;42426;46.104;19.656;2024-03-02T01:54:37;30.23;;;18.95;;
56122;SDS011;42426;46.104;19.656;2024-03-02T01:57:03;38.75;;;20.48;;
56122;SDS011;42426;46.104;19.656;2024-03-02T01:59:29;30.17;;;20.00;;
56122;SDS011;42426;46.104;19.656;2024-03-02T02:01:56;29.55;;;19.25;;
56122;SDS011;42426;46.104;19.656;2024-03-02T02:04:21;31.63;;;19.30;;
56122;SDS011;42426;46.104;19.656;2024-03-02T02:06:52;32.70;;;18.98;;
56122;SDS011;42426;46.104;19.656;2024-03-02T02:09:18;30.75;;;19.02;;
56122;SDS011;42426;46.104;19.656;2024-03-02T02:11:44;27.23;;;19.30;;
56122;SDS011;42426;46.104;19.656;2024-03-02T02:14:09;31.65;;;18.55;;
56122;SDS011;42426;46.104;19.656;2024-03-02T02:16:36;26.80;;;18.75;;
56122;SDS011;42426;46.104;19.656;2024-03-02T02:19:02;33.03;;;18.63;;
56122;SDS011;42426;46.104;19.656;2024-03-02T02:21:28;30.02;;;20.40;;
56122;SDS011;42426;46.104;19.656;2024-03-02T02:23:53;26.92;;;17.42;;
56122;SDS011;42426;46.104;19.656;2024-03-02T02:26:19;30.55;;;19.17;;
56122;SDS011;42426;46.104;19.656;2024-03-02T02:28:45;29.88;;;18.83;;
56122;SDS011;42426;46.104;19.656;2024-03-02T02:31:13;35.42;;;21.40;;
56122;SDS011;42426;46.104;19.656;2024-03-02T02:33:40;27.00;;;18.83;;
56122;SDS011;42426;46.104;19.656;2024-03-02T02:36:07;27.17;;;18.42;;
56122;SDS011;42426;46.104;19.656;2024-03-02T02:38:33;39.33;;;21.52;;
56122;SDS011;42426;46.104;19.656;2024-03-02T02:41:05;30.42;;;18.45;;
56122;SDS011;42426;46.104;19.656;2024-03-02T02:43:31;30.65;;;19.05;;
56122;SDS011;42426;46.104;19.656;2024-03-02T02:45:57;31.55;;;20.70;;
56122;SDS011;42426;46.104;19.656;2024-03-02T02:48:23;30.13;;;20.20;;
56122;SDS011;42426;46.104;19.656;2024-03-02T02:50:48;30.65;;;19.67;;
56122;SDS011;42426;46.104;19.656;2024-03-02T02:53:14;29.58;;;19.27;;
56122;SDS011;42426;46.104;19.656;2024-03-02T02:55:40;29.83;;;18.70;;
56122;SDS011;42426;46.104;19.656;2024-03-02T02:58:06;30.88;;;17.92;;
56122;SDS011;42426;46.104;19.656;2024-03-02T03:00:32;29.67;;;20.02;;
56122;SDS011;42426;46.104;19.656;2024-03-02T03:02:58;28.85;;;19.25;;
56122;SDS011;42426;46.104;19.656;2024-03-02T03:05:23;27.33;;;18.02;;
56122;SDS011;42426;46.104;19.656;2024-03-02T03:07:49;29.10;;;18.80;;
56122;SDS011;42426;46.104;19.656;2024-03-02T03:10:16;28.17;;;18.17;;
56122;SDS011;42426;46.104;19.656;2024-03-02T03:12:42;30.65;;;18.02;;
56122;SDS011;42426;46.104;19.656;2024-03-02T03:15:09;27.98;;;18.20;;
56122;SDS011;42426;46.104;19.656;2024-03-02T03:17:36;29.58;;;17.83;;
56122;SDS011;42426;46.104;19.656;2024-03-02T03:20:02;27.42;;;18.42;;
56122;SDS011;42426;46.104;19.656;2024-03-02T03:22:29;26.17;;;17.48;;
56122;SDS011;42426;46.104;19.656;2024-03-02T03:24:56;30.02;;;19.38;;
56122;SDS011;42426;46.104;19.656;2024-03-02T03:27:22;24.42;;;16.63;;
56122;SDS011;42426;46.104;19.656;2024-03-02T03:29:48;28.65;;;16.63;;
56122;SDS011;42426;46.104;19.656;2024-03-02T03:32:13;25.98;;;16.75;;
56122;SDS011;42426;46.104;19.656;2024-03-02T03:34:39;26.42;;;17.75;;
56122;SDS011;42426;46.104;19.656;2024-03-02T03:37:05;30.42;;;18.15;;
56122;SDS011;42426;46.104;19.656;2024-03-02T03:39:31;26.70;;;17.45;;
56122;SDS011;42426;46.104;19.656;2024-03-02T03:41:58;23.13;;;16.48;;
56122;SDS011;42426;46.104;19.656;2024-03-02T03:44:24;26.85;;;16.88;;
56122;SDS011;42426;46.104;19.656;2024-03-02T03:46:51;26.58;;;18.85;;
56122;SDS011;42426;46.104;19.656;2024-03-02T03:49:17;25.73;;;17.08;;
56122;SDS011;42426;46.104;19.656;2024-03-02T03:51:42;25.83;;;17.23;;
56122;SDS011;42426;46.104;19.656;2024-03-02T03:54:08;26.88;;;17.63;;
56122;SDS011;42426;46.104;19.656;2024-03-02T03:56:36;25.35;;;17.85;;
56122;SDS011;42426;46.104;19.656;2024-03-02T03:59:02;25.30;;;17.83;;
56122;SDS011;42426;46.104;19.656;2024-03-02T04:01:29;23.20;;;17.05;;
56122;SDS011;42426;46.104;19.656;2024-03-02T04:03:56;25.15;;;17.80;;
56122;SDS011;42426;46.104;19.656;2024-03-02T04:06:23;23.45;;;16.50;;
56122;SDS011;42426;46.104;19.656;2024-03-02T04:08:48;27.55;;;18.13;;
56122;SDS011;42426;46.104;19.656;2024-03-02T04:11:14;26.55;;;17.77;;
56122;SDS011;42426;46.104;19.656;2024-03-02T04:13:40;25.83;;;17.20;;
56122;SDS011;42426;46.104;19.656;2024-03-02T04:16:06;26.45;;;16.40;;
56122;SDS011;42426;46.104;19.656;2024-03-02T04:18:32;24.73;;;17.67;;
56122;SDS011;42426;46.104;19.656;2024-03-02T04:20:58;23.73;;;16.08;;
56122;SDS011;42426;46.104;19.656;2024-03-02T04:23:25;23.67;;;16.00;;
56122;SDS011;42426;46.104;19.656;2024-03-02T04:25:52;25.33;;;16.00;;
56122;SDS011;42426;46.104;19.656;2024-03-02T04:28:18;27.08;;;15.68;;
56122;SDS011;42426;46.104;19.656;2024-03-02T04:30:43;38.45;;;16.27;;
56122;SDS011;42426;46.104;19.656;2024-03-02T04:33:09;24.70;;;15.13;;
56122;SDS011;42426;46.104;19.656;2024-03-02T04:35:38;22.98;;;14.88;;
56122;SDS011;42426;46.104;19.656;2024-03-02T04:38:03;21.67;;;14.90;;
56122;SDS011;42426;46.104;19.656;2024-03-02T04:40:29;20.98;;;15.13;;
56122;SDS011;42426;46.104;19.656;2024-03-02T04:42:55;26.77;;;16.13;;
56122;SDS011;42426;46.104;19.656;2024-03-02T04:45:21;24.05;;;14.45;;
56122;SDS011;42426;46.104;19.656;2024-03-02T04:47:48;20.58;;;14.60;;
56122;SDS011;42426;46.104;19.656;2024-03-02T04:50:14;22.45;;;16.02;;
56122;SDS011;42426;46.104;19.656;2024-03-02T04:52:40;19.88;;;14.75;;
56122;SDS011;42426;46.104;19.656;2024-03-02T04:55:05;21.05;;;15.40;;
56122;SDS011;42426;46.104;19.656;2024-03-02T04:57:49;23.70;;;14.68;;
56122;SDS011;42426;46.104;19.656;2024-03-02T05:00:16;18.17;;;13.85;;
56122;SDS011;42426;46.104;19.656;2024-03-02T05:02:43;20.83;;;14.07;;
56122;SDS011;42426;46.104;19.656;2024-03-02T05:05:08;19.60;;;14.52;;
56122;SDS011;42426;46.104;19.656;2024-03-02T05:07:34;21.40;;;15.30;;
56122;SDS011;42426;46.104;19.656;2024-03-02T05:10:00;18.90;;;13.85;;
56122;SDS011;42426;46.104;19.656;2024-03-02T05:12:26;23.80;;;15.38;;
56122;SDS011;42426;46.104;19.656;2024-03-02T05:15:10;20.13;;;14.02;;
56122;SDS011;42426;46.104;19.656;2024-03-02T05:17:40;18.60;;;12.70;;
56122;SDS011;42426;46.104;19.656;2024-03-02T05:20:09;22.50;;;14.40;;
56122;SDS011;42426;46.104;19.656;2024-03-02T05:22:36;20.00;;;14.32;;
56122;SDS011;42426;46.104;19.656;2024-03-02T05:25:02;20.65;;;13.45;;
56122;SDS011;42426;46.104;19.656;2024-03-02T05:27:28;21.20;;;13.07;;
56122;SDS011;42426;46.104;19.656;2024-03-02T05:29:54;22.67;;;13.88;;
56122;SDS011;42426;46.104;19.656;2024-03-02T05:32:20;18.30;;;13.45;;
56122;SDS011;42426;46.104;19.656;2024-03-02T05:34:45;19.63;;;14.10;;
56122;SDS011;42426;46.104;19.656;2024-03-02T05:37:11;21.55;;;13.57;;
56122;SDS011;42426;46.104;19.656;2024-03-02T05:39:37;19.85;;;13.40;;
56122;SDS011;42426;46.104;19.656;2024-03-02T05:42:03;19.25;;;13.57;;
56122;SDS011;42426;46.104;19.656;2024-03-02T05:44:29;20.80;;;14.30;;
56122;SDS011;42426;46.104;19.656;2024-03-02T05:46:58;21.95;;;13.40;;
56122;SDS011;42426;46.104;19.656;2024-03-02T05:49:23;19.92;;;13.38;;
56122;SDS011;42426;46.104;19.656;2024-03-02T05:51:49;20.45;;;13.57;;
56122;SDS011;42426;46.104;19.656;2024-03-02T05:54:15;17.85;;;13.43;;
56122;SDS011;42426;46.104;19.656;2024-03-02T05:56:40;19.88;;;12.43;;
56122;SDS011;42426;46.104;19.656;2024-03-02T06:04:08;19.33;;;13.55;;
56122;SDS011;42426;46.104;19.656;2024-03-02T06:06:34;17.67;;;13.40;;
56122;SDS011;42426;46.104;19.656;2024-03-02T06:09:03;21.20;;;15.18;;
56122;SDS011;42426;46.104;19.656;2024-03-02T06:11:35;16.88;;;13.27;;
56122;SDS011;42426;46.104;19.656;2024-03-02T06:14:02;20.40;;;13.07;;
56122;SDS011;42426;46.104;19.656;2024-03-02T06:16:28;18.20;;;13.10;;
56122;SDS011;42426;46.104;19.656;2024-03-02T06:18:55;16.08;;;12.57;;
56122;SDS011;42426;46.104;19.656;2024-03-02T06:21:23;17.70;;;13.05;;
56122;SDS011;42426;46.104;19.656;2024-03-02T06:23:50;21.83;;;13.90;;
56122;SDS011;42426;46.104;19.656;2024-03-02T06:26:16;20.30;;;13.05;;
56122;SDS011;42426;46.104;19.656;2024-03-02T06:28:42;20.05;;;13.50;;
56122;SDS011;42426;46.104;19.656;2024-03-02T06:31:08;20.48;;;12.73;;
56122;SDS011;42426;46.104;19.656;2024-03-02T06:33:34;19.70;;;14.18;;
56122;SDS011;42426;46.104;19.656;2024-03-02T06:36:00;20.30;;;13.98;;
56122;SDS011;42426;46.104;19.656;2024-03-02T06:38:27;22.15;;;16.13;;
56122;SDS011;42426;46.104;19.656;2024-03-02T06:40:53;22.35;;;15.35;;
56122;SDS011;42426;46.104;19.656;2024-03-02T06:43:20;24.20;;;16.40;;
56122;SDS011;42426;46.104;19.656;2024-03-02T06:45:50;21.00;;;15.27;;
56122;SDS011;42426;46.104;19.656;2024-03-02T06:48:16;20.75;;;15.32;;
56122;SDS011;42426;46.104;19.656;2024-03-02T06:50:49;20.33;;;14.95;;
56122;SDS011;42426;46.104;19.656;2024-03-02T06:53:16;21.15;;;15.02;;
56122;SDS011;42426;46.104;19.656;2024-03-02T06:55:43;20.35;;;14.23;;
56122;SDS011;42426;46.104;19.656;2024-03-02T06:58:12;18.88;;;14.38;;
56122;SDS011;42426;46.104;19.656;2024-03-02T07:00:40;21.35;;;14.98;;
56122;SDS011;42426;46.104;19.656;2024-03-02T07:03:09;20.77;;;15.32;;
56122;SDS011;42426;46.104;19.656;2024-03-02T07:05:35;18.73;;;14.00;;
56122;SDS011;42426;46.104;19.656;2024-03-02T07:08:01;19.52;;;14.38;;
56122;SDS011;42426;46.104;19.656;2024-03-02T07:10:27;18.95;;;12.77;;
56122;SDS011;42426;46.104;19.656;2024-03-02T07:12:53;19.52;;;12.10;;
56122;SDS011;42426;46.104;19.656;2024-03-02T07:15:19;15.93;;;11.27;;
56122;SDS011;42426;46.104;19.656;2024-03-02T07:20:29;17.83;;;11.43;;
56122;SDS011;42426;46.104;19.656;2024-03-02T07:22:55;15.82;;;12.13;;
56122;SDS011;42426;46.104;19.656;2024-03-02T07:25:22;16.90;;;12.55;;
56122;SDS011;42426;46.104;19.656;2024-03-02T07:27:47;19.83;;;14.50;;
56122;SDS011;42426;46.104;19.656;2024-03-02T07:30:13;18.75;;;13.32;;
56122;SDS011;42426;46.104;19.656;2024-03-02T07:32:41;18.92;;;12.68;;
56122;SDS011;42426;46.104;19.656;2024-03-02T07:35:10;19.42;;;13.68;;
56122;SDS011;42426;46.104;19.656;2024-03-02T07:37:37;17.50;;;13.60;;
56122;SDS011;42426;46.104;19.656;2024-03-02T07:40:03;20.70;;;14.32;;
56122;SDS011;42426;46.104;19.656;2024-03-02T07:42:29;17.17;;;12.15;;
56122;SDS011;42426;46.104;19.656;2024-03-02T07:44:55;17.85;;;11.13;;
56122;SDS011;42426;46.104;19.656;2024-03-02T07:47:21;15.52;;;10.80;;
56122;SDS011;42426;46.104;19.656;2024-03-02T07:49:47;15.98;;;10.40;;
56122;SDS011;42426;46.104;19.656;2024-03-02T07:52:13;12.65;;;9.07;;
56122;SDS011;42426;46.104;19.656;2024-03-02T07:54:38;14.45;;;8.90;;
56122;SDS011;42426;46.104;19.656;2024-03-02T07:57:04;13.75;;;10.00;;
56122;SDS011;42426;46.104;19.656;2024-03-02T07:59:30;13.93;;;9.00;;
56122;SDS011;42426;46.104;19.656;2024-03-02T08:01:56;14.45;;;8.40;;
56122;SDS011;42426;46.104;19.656;2024-03-02T08:04:21;14.23;;;9.30;;
56122;SDS011;42426;46.104;19.656;2024-03-02T08:06:48;15.43;;;8.15;;
56122;SDS011;42426;46.104;19.656;2024-03-02T08:09:14;13.95;;;9.68;;
56122;SDS011;42426;46.104;19.656;2024-03-02T08:11:39;15.10;;;9.55;;
56122;SDS011;42426;46.104;19.656;2024-03-02T08:14:05;14.70;;;9.75;;
56122;SDS011;42426;46.104;19.656;2024-03-02T08:16:31;12.65;;;8.65;;
56122;SDS011;42426;46.104;19.656;2024-03-02T08:18:57;14.27;;;9.45;;
56122;SDS011;42426;46.104;19.656;2024-03-02T08:21:24;14.07;;;10.60;;
56122;SDS011;42426;46.104;19.656;2024-03-02T08:23:50;16.95;;;10.63;;
56122;SDS011;42426;46.104;19.656;2024-03-02T08:26:16;17.58;;;10.68;;
56122;SDS011;42426;46.104;19.656;2024-03-02T08:28:43;17.10;;;10.15;;
56122;SDS011;42426;46.104;19.656;2024-03-02T08:31:09;14.95;;;10.05;;
56122;SDS011;42426;46.104;19.656;2024-03-02T08:33:35;17.42;;;10.27;;
56122;SDS011;42426;46.104;19.656;2024-03-02T08:36:01;14.80;;;10.50;;
56122;SDS011;42426;46.104;19.656;2024-03-02T08:38:27;19.30;;;13.95;;
56122;SDS011;42426;46.104;19.656;2024-03-02T08:40:54;23.80;;;13.43;;
56122;SDS011;42426;46.104;19.656;2024-03-02T08:43:21;21.70;;;11.93;;
56122;SDS011;42426;46.104;19.656;2024-03-02T08:45:47;18.10;;;12.55;;
56122;SDS011;42426;46.104;19.656;2024-03-02T08:48:14;18.20;;;13.05;;
56122;SDS011;42426;46.104;19.656;2024-03-02T08:50:40;18.02;;;12.52;;
56122;SDS011;42426;46.104;19.656;2024-03-02T08:53:06;19.13;;;13.02;;
56122;SDS011;42426;46.104;19.656;2024-03-02T08:55:32;16.45;;;11.40;;
56122;SDS011;42426;46.104;19.656;2024-03-02T08:57:58;19.38;;;11.70;;
56122;SDS011;42426;46.104;19.656;2024-03-02T09:00:26;18.42;;;13.30;;
56122;SDS011;42426;46.104;19.656;2024-03-02T09:02:51;17.30;;;11.65;;
56122;SDS011;42426;46.104;19.656;2024-03-02T09:05:17;15.30;;;11.27;;
56122;SDS011;42426;46.104;19.656;2024-03-02T09:07:43;17.88;;;12.23;;
56122;SDS011;42426;46.104;19.656;2024-03-02T09:10:09;12.85;;;11.35;;
56122;SDS011;42426;46.104;19.656;2024-03-02T09:12:35;16.42;;;11.63;;
56122;SDS011;42426;46.104;19.656;2024-03-02T09:15:01;19.58;;;12.65;;
56122;SDS011;42426;46.104;19.656;2024-03-02T09:17:31;17.63;;;12.93;;
56122;SDS011;42426;46.104;19.656;2024-03-02T09:19:57;20.90;;;13.95;;
56122;SDS011;42426;46.104;19.656;2024-03-02T09:22:22;21.23;;;13.95;;
56122;SDS011;42426;46.104;19.656;2024-03-02T09:24:48;17.52;;;13.00;;
56122;SDS011;42426;46.104;19.656;2024-03-02T09:27:14;21.63;;;13.48;;
56122;SDS011;42426;46.104;19.656;2024-03-02T09:29:40;17.55;;;12.50;;
56122;SDS011;42426;46.104;19.656;2024-03-02T09:32:06;19.05;;;13.02;;
56122;SDS011;42426;46.104;19.656;2024-03-02T09:34:32;17.95;;;12.30;;
56122;SDS011;42426;46.104;19.656;2024-03-02T09:36:59;20.13;;;14.38;;
56122;SDS011;42426;46.104;19.656;2024-03-02T09:39:25;19.27;;;13.07;;
56122;SDS011;42426;46.104;19.656;2024-03-02T09:41:51;21.20;;;13.77;;
56122;SDS011;42426;46.104;19.656;2024-03-02T09:44:18;16.80;;;12.95;;
56122;SDS011;42426;46.104;19.656;2024-03-02T09:46:48;19.05;;;13.75;;
56122;SDS011;42426;46.104;19.656;2024-03-02T09:49:14;20.48;;;14.05;;
56122;SDS011;42426;46.104;19.656;2024-03-02T09:51:40;21.42;;;15.23;;
56122;SDS011;42426;46.104;19.656;2024-03-02T09:54:11;23.42;;;15.20;;
56122;SDS011;42426;46.104;19.656;2024-03-02T09:56:37;23.25;;;15.32;;
56122;SDS011;42426;46.104;19.656;2024-03-02T09:59:05;23.63;;;15.95;;
56122;SDS011;42426;46.104;19.656;2024-03-02T10:01:31;22.60;;;16.83;;
56122;SDS011;42426;46.104;19.656;2024-03-02T10:04:00;23.15;;;16.02;;
56122;SDS011;42426;46.104;19.656;2024-03-02T10:06:27;24.52;;;17.13;;
56122;SDS011;42426;46.104;19.656;2024-03-02T10:08:54;28.15;;;18.52;;
56122;SDS011;42426;46.104;19.656;2024-03-02T10:11:31;27.67;;;19.58;;
56122;SDS011;42426;46.104;19.656;2024-03-02T10:16:39;34.17;;;23.60;;
56122;SDS011;42426;46.104;19.656;2024-03-02T10:19:16;35.90;;;22.80;;
56122;SDS011;42426;46.104;19.656;2024-03-02T10:21:44;33.08;;;22.88;;
56122;SDS011;42426;46.104;19.656;2024-03-02T10:24:13;32.13;;;20.75;;
56122;SDS011;42426;46.104;19.656;2024-03-02T10:26:39;32.03;;;21.88;;
56122;SDS011;42426;46.104;19.656;2024-03-02T10:29:05;33.60;;;22.23;;
56122;SDS011;42426;46.104;19.656;2024-03-02T10:31:30;31.00;;;21.27;;
56122;SDS011;42426;46.104;19.656;2024-03-02T10:33:59;35.83;;;21.80;;
56122;SDS011;42426;46.104;19.656;2024-03-02T10:36:28;30.35;;;20.80;;
56122;SDS011;42426;46.104;19.656;2024-03-02T10:38:56;30.10;;;20.40;;
56122;SDS011;42426;46.104;19.656;2024-03-02T10:41:24;32.15;;;21.52;;
56122;SDS011;42426;46.104;19.656;2024-03-02T10:43:53;32.47;;;21.05;;
56122;SDS011;42426;46.104;19.656;2024-03-02T10:46:31;30.95;;;19.83;;
56122;SDS011;42426;46.104;19.656;2024-03-02T10:51:29;26.30;;;18.08;;
56122;SDS011;42426;46.104;19.656;2024-03-02T10:53:57;30.42;;;21.52;;
56122;SDS011;42426;46.104;19.656;2024-03-02T10:56:43;31.45;;;20.67;;
56122;SDS011;42426;46.104;19.656;2024-03-02T11:01:53;27.25;;;19.65;;
56122;SDS011;42426;46.104;19.656;2024-03-02T11:04:24;31.45;;;21.45;;
56122;SDS011;42426;46.104;19.656;2024-03-02T11:06:51;36.42;;;24.83;;
56122;SDS011;42426;46.104;19.656;2024-03-02T11:09:18;32.45;;;23.08;;
56122;SDS011;42426;46.104;19.656;2024-03-02T11:11:45;39.97;;;26.42;;
56122;SDS011;42426;46.104;19.656;2024-03-02T11:14:16;37.00;;;24.27;;
56122;SDS011;42426;46.104;19.656;2024-03-02T11:16:45;34.75;;;23.92;;
56122;SDS011;42426;46.104;19.656;2024-03-02T11:19:12;38.95;;;26.13;;
56122;SDS011;42426;46.104;19.656;2024-03-02T11:21:39;35.50;;;24.23;;
56122;SDS011;42426;46.104;19.656;2024-03-02T11:26:52;36.55;;;25.80;;
56122;SDS011;42426;46.104;19.656;2024-03-02T11:32:21;34.72;;;23.83;;
56122;SDS011;42426;46.104;19.656;2024-03-02T11:34:50;35.10;;;22.88;;
56122;SDS011;42426;46.104;19.656;2024-03-02T11:37:17;38.47;;;25.05;;
56122;SDS011;42426;46.104;19.656;2024-03-02T11:39:45;34.33;;;25.02;;
56122;SDS011;42426;46.104;19.656;2024-03-02T11:42:12;37.88;;;24.77;;
56122;SDS011;42426;46.104;19.656;2024-03-02T11:44:50;37.08;;;25.60;;
56122;SDS011;42426;46.104;19.656;2024-03-02T11:47:16;36.70;;;25.73;;
56122;SDS011;42426;46.104;19.656;2024-03-02T11:49:48;36.65;;;23.17;;
56122;SDS011;42426;46.104;19.656;2024-03-02T11:52:16;35.40;;;23.77;;
56122;SDS011;42426;46.104;19.656;2024-03-02T11:54:46;33.58;;;23.88;;
56122;SDS011;42426;46.104;19.656;2024-03-02T11:57:14;30.75;;;23.77;;
56122;SDS011;42426;46.104;19.656;2024-03-02T11:59:42;34.90;;;24.23;;
56122;SDS011;42426;46.104;19.656;2024-03-02T12:02:14;35.80;;;24.05;;
56122;SDS011;42426;46.104;19.656;2024-03-02T12:04:49;33.65;;;23.55;;
56122;SDS011;42426;46.104;19.656;2024-03-02T12:07:22;37.88;;;25.13;;
56122;SDS011;42426;46.104;19.656;2024-03-02T12:10:00;37.78;;;25.77;;
56122;SDS011;42426;46.104;19.656;2024-03-02T12:12:28;33.17;;;23.55;;
56122;SDS011;42426;46.104;19.656;2024-03-02T12:14:53;31.52;;;23.63;;
56122;SDS011;42426;46.104;19.656;2024-03-02T12:17:21;34.35;;;22.88;;
56122;SDS011;42426;46.104;19.656;2024-03-02T12:19:47;34.47;;;24.65;;
56122;SDS011;42426;46.104;19.656;2024-03-02T12:22:13;32.22;;;23.27;;
56122;SDS011;42426;46.104;19.656;2024-03-02T12:24:40;33.13;;;23.65;;
56122;SDS011;42426;46.104;19.656;2024-03-02T12:27:10;30.17;;;23.00;;
56122;SDS011;42426;46.104;19.656;2024-03-02T12:29:37;31.30;;;21.50;;
56122;SDS011;42426;46.104;19.656;2024-03-02T12:32:05;31.30;;;22.23;;
56122;SDS011;42426;46.104;19.656;2024-03-02T12:34:31;32.45;;;22.65;;
56122;SDS011;42426;46.104;19.656;2024-03-02T12:36:57;30.95;;;21.85;;
56122;SDS011;42426;46.104;19.656;2024-03-02T12:39:23;27.95;;;21.33;;
56122;SDS011;42426;46.104;19.656;2024-03-02T12:41:49;32.17;;;23.08;;
56122;SDS011;42426;46.104;19.656;2024-03-02T12:44:19;30.35;;;22.42;;
56122;SDS011;42426;46.104;19.656;2024-03-02T12:46:46;30.42;;;23.10;;
56122;SDS011;42426;46.104;19.656;2024-03-02T12:49:14;30.77;;;22.60;;
56122;SDS011;42426;46.104;19.656;2024-03-02T12:51:45;36.08;;;24.67;;
56122;SDS011;42426;46.104;19.656;2024-03-02T12:54:16;33.85;;;25.02;;
56122;SDS011;42426;46.104;19.656;2024-03-02T12:56:42;35.65;;;25.80;;
56122;SDS011;42426;46.104;19.656;2024-03-02T12:59:18;27.20;;;22.70;;
56122;SDS011;42426;46.104;19.656;2024-03-02T13:01:54;27.83;;;22.40;;
56122;SDS011;42426;46.104;19.656;2024-03-02T13:04:30;31.05;;;22.77;;
56122;SDS011;42426;46.104;19.656;2024-03-02T13:06:57;30.33;;;21.67;;
56122;SDS011;42426;46.104;19.656;2024-03-02T13:09:23;31.50;;;22.60;;
56122;SDS011;42426;46.104;19.656;2024-03-02T13:11:49;31.08;;;22.58;;
56122;SDS011;42426;46.104;19.656;2024-03-02T13:14:15;30.90;;;22.45;;
56122;SDS011;42426;46.104;19.656;2024-03-02T13:16:41;29.33;;;20.95;;
56122;SDS011;42426;46.104;19.656;2024-03-02T13:19:10;31.75;;;22.13;;
56122;SDS011;42426;46.104;19.656;2024-03-02T13:21:36;24.58;;;19.60;;
56122;SDS011;42426;46.104;19.656;2024-03-02T13:24:03;26.75;;;21.60;;
56122;SDS011;42426;46.104;19.656;2024-03-02T13:26:29;30.70;;;22.08;;
56122;SDS011;42426;46.104;19.656;2024-03-02T13:28:55;34.72;;;24.15;;
56122;SDS011;42426;46.104;19.656;2024-03-02T13:31:21;33.40;;;21.17;;
56122;SDS011;42426;46.104;19.656;2024-03-02T13:33:47;36.28;;;23.33;;
56122;SDS011;42426;46.104;19.656;2024-03-02T13:36:13;26.92;;;21.20;;
56122;SDS011;42426;46.104;19.656;2024-03-02T13:38:39;28.80;;;22.38;;
56122;SDS011;42426;46.104;19.656;2024-03-02T13:41:05;29.00;;;23.17;;
56122;SDS011;42426;46.104;19.656;2024-03-02T13:43:31;30.20;;;21.83;;
56122;SDS011;42426;46.104;19.656;2024-03-02T13:46:01;28.98;;;22.13;;
56122;SDS011;42426;46.104;19.656;2024-03-02T13:48:27;29.10;;;21.35;;
56122;SDS011;42426;46.104;19.656;2024-03-02T13:50:53;30.85;;;23.02;;
56122;SDS011;42426;46.104;19.656;2024-03-02T13:53:19;33.47;;;23.55;;
56122;SDS011;42426;46.104;19.656;2024-03-02T13:55:45;29.40;;;22.15;;
56122;SDS011;42426;46.104;19.656;2024-03-02T13:58:12;29.88;;;22.35;;
56122;SDS011;42426;46.104;19.656;2024-03-02T14:00:38;35.30;;;23.48;;
56122;SDS011;42426;46.104;19.656;2024-03-02T14:03:07;35.17;;;20.95;;
56122;SDS011;42426;46.104;19.656;2024-03-02T14:05:33;27.17;;;21.27;;
56122;SDS011;42426;46.104;19.656;2024-03-02T14:07:59;25.65;;;22.08;;
56122;SDS011;42426;46.104;19.656;2024-03-02T14:10:29;31.40;;;21.77;;
56122;SDS011;42426;46.104;19.656;2024-03-02T14:12:54;26.38;;;20.48;;
56122;SDS011;42426;46.104;19.656;2024-03-02T14:15:21;28.52;;;21.05;;
56122;SDS011;42426;46.104;19.656;2024-03-02T14:17:48;29.95;;;20.30;;
56122;SDS011;42426;46.104;19.656;2024-03-02T14:20:14;30.63;;;20.88;;
56122;SDS011;42426;46.104;19.656;2024-03-02T14:22:46;27.63;;;20.70;;
56122;SDS011;42426;46.104;19.656;2024-03-02T14:25:13;27.80;;;20.38;;
56122;SDS011;42426;46.104;19.656;2024-03-02T14:27:39;32.22;;;22.02;;
56122;SDS011;42426;46.104;19.656;2024-03-02T14:30:05;29.10;;;20.60;;
56122;SDS011;42426;46.104;19.656;2024-03-02T14:32:32;27.05;;;19.33;;
56122;SDS011;42426;46.104;19.656;2024-03-02T14:34:58;28.25;;;20.20;;
56122;SDS011;42426;46.104;19.656;2024-03-02T14:37:24;25.23;;;19.20;;
56122;SDS011;42426;46.104;19.656;2024-03-02T14:39:50;25.65;;;19.60;;